CSN645 SBPV-SKBO
Flight info
| Callsign | CSN645 |
|---|---|
| Flight time | N/A |
| Altitude | 36000 |
| Route | OGLAM UL655 PABON UP530 VVC DCT VUNEX VUNEX5W |
| Aircraft | B738/M-SDE2E3FGHIRWXY/LB1 |
Departure
| Time | 2026-04-21 11:16 |
|---|---|
| Airport | Governador Jorge Teixeira de Oliveira International Airport (SBPV) |
Arrival
| Time | N/A |
|---|---|
| Airport | El Dorado International Airport (SKBO) |
| Time | Latitude | Longitude | Altitude | Speed | Heading |
|---|---|---|---|---|---|
| 2026-04-21 11:10 | -8.71394 | -63.90059 | 297 ft | 0 kts | 176° |
| 2026-04-21 11:12 | -8.71398 | -63.90059 | 297 ft | 2 kts | 176° |
| 2026-04-21 11:13 | -8.71427 | -63.90057 | 296 ft | 6 kts | 176° |
| 2026-04-21 11:13 | -8.71485 | -63.90053 | 296 ft | 10 kts | 176° |
| 2026-04-21 11:13 | -8.71568 | -63.90048 | 297 ft | 14 kts | 176° |
| 2026-04-21 11:13 | -8.71673 | -63.90042 | 295 ft | 17 kts | 176° |
| 2026-04-21 11:14 | -8.71803 | -63.90035 | 295 ft | 20 kts | 177° |
| 2026-04-21 11:14 | -8.71928 | -63.90080 | 297 ft | 13 kts | 218° |
| 2026-04-21 11:14 | -8.71944 | -63.90094 | 295 ft | 2 kts | 218° |
| 2026-04-21 11:14 | -8.71971 | -63.90122 | 296 ft | 11 kts | 240° |
| 2026-04-21 11:15 | -8.71931 | -63.90171 | 296 ft | 11 kts | 348° |
| 2026-04-21 11:15 | -8.71703 | -63.90187 | 297 ft | 67 kts | 357° |
| 2026-04-21 11:15 | -8.70999 | -63.90227 | 298 ft | 132 kts | 356° |
| 2026-04-21 11:15 | -8.69895 | -63.90288 | 368 ft | 179 kts | 358° |
| 2026-04-21 11:16 | -8.68686 | -63.90277 | 1179 ft | 173 kts | 2° |
| 2026-04-21 11:16 | -8.67501 | -63.90334 | 2022 ft | 169 kts | 356° |
| 2026-04-21 11:16 | -8.66253 | -63.90438 | 2345 ft | 192 kts | 356° |
| 2026-04-21 11:16 | -8.64858 | -63.90557 | 2533 ft | 212 kts | 353° |
| 2026-04-21 11:17 | -8.63446 | -63.91143 | 2681 ft | 232 kts | 319° |
| 2026-04-21 11:17 | -8.62415 | -63.92441 | 2968 ft | 242 kts | 303° |
| 2026-04-21 11:17 | -8.61552 | -63.93922 | 3382 ft | 245 kts | 300° |
| 2026-04-21 11:17 | -8.60716 | -63.95442 | 3845 ft | 248 kts | 300° |
| 2026-04-21 11:18 | -8.59847 | -63.97024 | 4051 ft | 266 kts | 300° |
| 2026-04-21 11:18 | -8.58933 | -63.98677 | 4588 ft | 271 kts | 300° |
| 2026-04-21 11:18 | -8.58006 | -64.00341 | 5231 ft | 273 kts | 300° |
| 2026-04-21 11:18 | -8.57066 | -64.02018 | 5847 ft | 276 kts | 300° |
| 2026-04-21 11:19 | -8.56122 | -64.03695 | 6448 ft | 279 kts | 299° |
| 2026-04-21 11:19 | -8.55153 | -64.05409 | 7026 ft | 282 kts | 299° |
| 2026-04-21 11:19 | -8.54172 | -64.07142 | 7644 ft | 285 kts | 300° |
| 2026-04-21 11:19 | -8.53181 | -64.08888 | 8244 ft | 288 kts | 300° |
| 2026-04-21 11:20 | -8.52182 | -64.10648 | 8885 ft | 290 kts | 299° |
| 2026-04-21 11:20 | -8.51168 | -64.12431 | 9530 ft | 294 kts | 299° |
| 2026-04-21 11:20 | -8.50155 | -64.14213 | 10148 ft | 297 kts | 299° |
| 2026-04-21 11:20 | -8.49095 | -64.16077 | 10371 ft | 316 kts | 299° |
| 2026-04-21 11:21 | -8.47965 | -64.18061 | 10525 ft | 336 kts | 299° |
| 2026-04-21 11:21 | -8.46768 | -64.20165 | 10659 ft | 354 kts | 300° |
| 2026-04-21 11:21 | -8.45519 | -64.22358 | 10944 ft | 365 kts | 299° |
| 2026-04-21 11:21 | -8.44240 | -64.24601 | 11438 ft | 369 kts | 300° |
| 2026-04-21 11:22 | -8.42954 | -64.26856 | 12003 ft | 371 kts | 299° |
| 2026-04-21 11:22 | -8.41663 | -64.29122 | 12552 ft | 374 kts | 299° |
| 2026-04-21 11:22 | -8.40356 | -64.31413 | 13098 ft | 377 kts | 299° |
| 2026-04-21 11:22 | -8.39036 | -64.33727 | 13663 ft | 380 kts | 299° |
| 2026-04-21 11:23 | -8.37710 | -64.36052 | 14162 ft | 384 kts | 299° |
| 2026-04-21 11:23 | -8.36389 | -64.38368 | 14645 ft | 387 kts | 299° |
| 2026-04-21 11:23 | -8.35039 | -64.40735 | 15157 ft | 390 kts | 299° |
| 2026-04-21 11:23 | -8.33681 | -64.43116 | 15676 ft | 393 kts | 300° |
| 2026-04-21 11:24 | -8.32113 | -64.45379 | 16125 ft | 397 kts | 312° |
| 2026-04-21 11:24 | -8.30176 | -64.47384 | 16649 ft | 399 kts | 315° |
| 2026-04-21 11:24 | -8.28182 | -64.49353 | 17129 ft | 402 kts | 315° |
| 2026-04-21 11:24 | -8.26162 | -64.51327 | 17597 ft | 405 kts | 316° |
| 2026-04-21 11:25 | -8.24129 | -64.53324 | 18060 ft | 408 kts | 315° |
| 2026-04-21 11:25 | -8.22116 | -64.55315 | 18470 ft | 411 kts | 315° |
| 2026-04-21 11:25 | -8.20071 | -64.57352 | 18866 ft | 414 kts | 315° |
| 2026-04-21 11:25 | -8.18022 | -64.59405 | 19274 ft | 416 kts | 315° |
| 2026-04-21 11:26 | -8.15959 | -64.61478 | 19657 ft | 419 kts | 315° |
| 2026-04-21 11:26 | -8.13892 | -64.63559 | 20027 ft | 421 kts | 315° |
| 2026-04-21 11:26 | -8.11802 | -64.65663 | 20402 ft | 424 kts | 315° |
| 2026-04-21 11:26 | -8.09729 | -64.67750 | 20776 ft | 426 kts | 315° |
| 2026-04-21 11:27 | -8.07626 | -64.69866 | 21145 ft | 429 kts | 315° |
| 2026-04-21 11:27 | -8.05504 | -64.72001 | 21508 ft | 431 kts | 315° |
| 2026-04-21 11:27 | -8.03369 | -64.74149 | 21848 ft | 434 kts | 315° |
| 2026-04-21 11:27 | -8.01227 | -64.76304 | 22180 ft | 437 kts | 315° |
| 2026-04-21 11:28 | -7.99063 | -64.78477 | 22514 ft | 439 kts | 315° |
| 2026-04-21 11:28 | -7.96890 | -64.80663 | 22858 ft | 441 kts | 315° |
| 2026-04-21 11:28 | -7.94715 | -64.82849 | 23186 ft | 443 kts | 315° |
| 2026-04-21 11:28 | -7.92524 | -64.85052 | 23499 ft | 445 kts | 315° |
| 2026-04-21 11:29 | -7.90322 | -64.87265 | 23757 ft | 448 kts | 315° |
| 2026-04-21 11:29 | -7.88112 | -64.89486 | 24012 ft | 449 kts | 315° |
| 2026-04-21 11:29 | -7.85919 | -64.91689 | 24281 ft | 451 kts | 315° |
| 2026-04-21 11:29 | -7.83688 | -64.93929 | 24537 ft | 453 kts | 315° |
| 2026-04-21 11:30 | -7.81437 | -64.96188 | 24788 ft | 455 kts | 315° |
| 2026-04-21 11:30 | -7.79190 | -64.98444 | 25009 ft | 457 kts | 316° |
| 2026-04-21 11:30 | -7.76929 | -65.00714 | 25198 ft | 460 kts | 316° |
| 2026-04-21 11:30 | -7.74672 | -65.02978 | 25420 ft | 463 kts | 316° |
| 2026-04-21 11:31 | -7.72387 | -65.05271 | 25681 ft | 464 kts | 316° |
| 2026-04-21 11:31 | -7.70087 | -65.07579 | 25933 ft | 465 kts | 316° |
| 2026-04-21 11:31 | -7.67784 | -65.09889 | 26169 ft | 467 kts | 316° |
| 2026-04-21 11:31 | -7.65471 | -65.12208 | 26381 ft | 469 kts | 316° |
| 2026-04-21 11:32 | -7.63149 | -65.14536 | 26592 ft | 471 kts | 316° |
| 2026-04-21 11:32 | -7.60821 | -65.16870 | 26817 ft | 473 kts | 316° |
| 2026-04-21 11:32 | -7.58478 | -65.19219 | 27034 ft | 474 kts | 316° |
| 2026-04-21 11:32 | -7.56160 | -65.21543 | 27230 ft | 476 kts | 316° |
| 2026-04-21 11:33 | -7.53809 | -65.23900 | 27425 ft | 478 kts | 316° |
| 2026-04-21 11:33 | -7.51448 | -65.26266 | 27632 ft | 480 kts | 316° |
| 2026-04-21 11:33 | -7.49057 | -65.28662 | 27833 ft | 482 kts | 316° |
| 2026-04-21 11:33 | -7.46673 | -65.31051 | 28032 ft | 483 kts | 316° |
| 2026-04-21 11:34 | -7.44287 | -65.33442 | 28222 ft | 485 kts | 316° |
| 2026-04-21 11:34 | -7.41921 | -65.35811 | 28394 ft | 487 kts | 316° |
| 2026-04-21 11:34 | -7.39484 | -65.38249 | 28573 ft | 488 kts | 316° |
| 2026-04-21 11:34 | -7.37095 | -65.40639 | 28746 ft | 490 kts | 316° |
| 2026-04-21 11:35 | -7.34675 | -65.43059 | 28914 ft | 491 kts | 316° |
| 2026-04-21 11:35 | -7.32236 | -65.45498 | 29093 ft | 493 kts | 316° |
| 2026-04-21 11:35 | -7.29806 | -65.47929 | 29331 ft | 493 kts | 316° |
| 2026-04-21 11:35 | -7.27368 | -65.50367 | 29614 ft | 492 kts | 316° |
| 2026-04-21 11:36 | -7.24973 | -65.52762 | 29886 ft | 491 kts | 316° |
| 2026-04-21 11:36 | -7.22547 | -65.55189 | 30099 ft | 491 kts | 316° |
| 2026-04-21 11:36 | -7.20118 | -65.57618 | 30306 ft | 491 kts | 316° |
| 2026-04-21 11:36 | -7.17686 | -65.60049 | 30558 ft | 490 kts | 316° |
| 2026-04-21 11:37 | -7.15267 | -65.62465 | 30824 ft | 489 kts | 317° |
| 2026-04-21 11:37 | -7.12855 | -65.64875 | 31084 ft | 488 kts | 316° |
| 2026-04-21 11:37 | -7.10442 | -65.67284 | 31316 ft | 488 kts | 317° |
| 2026-04-21 11:37 | -7.08031 | -65.69693 | 31553 ft | 487 kts | 316° |
| 2026-04-21 11:38 | -7.05652 | -65.72069 | 31806 ft | 486 kts | 317° |
| 2026-04-21 11:38 | -7.03222 | -65.74495 | 32060 ft | 486 kts | 316° |
| 2026-04-21 11:38 | -7.00853 | -65.76861 | 32307 ft | 485 kts | 317° |
| 2026-04-21 11:38 | -6.98455 | -65.79255 | 32564 ft | 485 kts | 317° |
| 2026-04-21 11:39 | -6.96060 | -65.81644 | 32822 ft | 484 kts | 317° |
| 2026-04-21 11:39 | -6.93668 | -65.84030 | 33085 ft | 483 kts | 317° |
| 2026-04-21 11:39 | -6.91276 | -65.86418 | 33340 ft | 483 kts | 317° |
| 2026-04-21 11:39 | -6.88888 | -65.88801 | 33595 ft | 482 kts | 317° |
| 2026-04-21 11:40 | -6.86499 | -65.91183 | 33834 ft | 482 kts | 317° |
| 2026-04-21 11:40 | -6.84141 | -65.93532 | 34054 ft | 482 kts | 317° |
| 2026-04-21 11:40 | -6.81743 | -65.95923 | 34261 ft | 482 kts | 317° |
| 2026-04-21 11:40 | -6.79393 | -65.98266 | 34479 ft | 481 kts | 317° |
| 2026-04-21 11:41 | -6.77014 | -66.00638 | 34702 ft | 480 kts | 317° |
| 2026-04-21 11:41 | -6.74644 | -66.02999 | 34913 ft | 480 kts | 317° |
| 2026-04-21 11:41 | -6.72265 | -66.05369 | 35117 ft | 479 kts | 317° |
| 2026-04-21 11:41 | -6.69902 | -66.07723 | 35347 ft | 478 kts | 317° |
| 2026-04-21 11:42 | -6.67533 | -66.10084 | 35559 ft | 477 kts | 317° |
| 2026-04-21 11:42 | -6.65174 | -66.12434 | 35752 ft | 477 kts | 317° |
| 2026-04-21 11:42 | -6.62810 | -66.14787 | 35938 ft | 477 kts | 317° |
| 2026-04-21 11:42 | -6.60478 | -66.17108 | 35945 ft | 479 kts | 317° |
| 2026-04-21 11:43 | -6.55745 | -66.21821 | 35955 ft | 476 kts | 317° |
| 2026-04-21 11:43 | -6.51039 | -66.26505 | 35955 ft | 473 kts | 317° |
| 2026-04-21 11:44 | -6.46395 | -66.31123 | 35956 ft | 471 kts | 317° |
| 2026-04-21 11:44 | -6.41735 | -66.35758 | 35954 ft | 469 kts | 317° |
| 2026-04-21 11:45 | -6.37094 | -66.40373 | 35956 ft | 469 kts | 317° |
| 2026-04-21 11:45 | -6.32449 | -66.44989 | 35959 ft | 470 kts | 317° |
| 2026-04-21 11:46 | -6.27791 | -66.49615 | 35959 ft | 471 kts | 317° |
| 2026-04-21 11:46 | -6.23142 | -66.54229 | 35958 ft | 473 kts | 317° |
| 2026-04-21 11:47 | -6.18451 | -66.58887 | 35962 ft | 475 kts | 317° |
| 2026-04-21 11:47 | -6.13745 | -66.63557 | 35959 ft | 476 kts | 317° |
| 2026-04-21 11:48 | -6.09020 | -66.68245 | 35955 ft | 477 kts | 317° |
| 2026-04-21 11:48 | -6.04294 | -66.72934 | 35957 ft | 477 kts | 317° |
| 2026-04-21 11:49 | -5.99559 | -66.77628 | 35959 ft | 477 kts | 317° |
| 2026-04-21 11:49 | -5.94839 | -66.82306 | 35955 ft | 476 kts | 317° |
| 2026-04-21 11:50 | -5.90162 | -66.86943 | 35956 ft | 475 kts | 317° |
| 2026-04-21 11:50 | -5.85454 | -66.91608 | 35954 ft | 474 kts | 317° |
| 2026-04-21 11:51 | -5.80764 | -66.96254 | 35955 ft | 472 kts | 317° |
| 2026-04-21 11:51 | -5.76112 | -67.00859 | 35955 ft | 471 kts | 317° |
| 2026-04-21 11:52 | -5.71439 | -67.05485 | 35956 ft | 470 kts | 316° |
| 2026-04-21 11:52 | -5.66769 | -67.10107 | 35958 ft | 470 kts | 317° |
| 2026-04-21 11:53 | -5.62892 | -67.13942 | 35953 ft | 470 kts | 317° |
| 2026-04-21 11:53 | -5.57473 | -67.19304 | 35957 ft | 470 kts | 317° |
| 2026-04-21 11:54 | -5.52817 | -67.23918 | 35957 ft | 471 kts | 317° |
| 2026-04-21 11:54 | -5.48938 | -67.27760 | 35961 ft | 471 kts | 317° |
| 2026-04-21 11:55 | -5.44264 | -67.32388 | 35957 ft | 472 kts | 317° |
| 2026-04-21 11:55 | -5.39579 | -67.37026 | 35956 ft | 473 kts | 317° |
| 2026-04-21 11:56 | -5.34886 | -67.41668 | 35960 ft | 474 kts | 317° |
| 2026-04-21 11:56 | -5.30183 | -67.46320 | 35958 ft | 474 kts | 317° |
| 2026-04-21 11:57 | -5.25479 | -67.50975 | 35959 ft | 475 kts | 317° |
| 2026-04-21 11:57 | -5.20796 | -67.55606 | 35960 ft | 475 kts | 317° |
| 2026-04-21 11:58 | -5.16083 | -67.60263 | 35961 ft | 475 kts | 317° |
| 2026-04-21 11:58 | -5.11364 | -67.64927 | 35961 ft | 475 kts | 317° |
| 2026-04-21 11:59 | -5.06641 | -67.69592 | 35960 ft | 475 kts | 317° |
| 2026-04-21 11:59 | -5.01958 | -67.74218 | 35959 ft | 475 kts | 317° |
| 2026-04-21 12:00 | -4.97246 | -67.78872 | 35957 ft | 475 kts | 317° |
| 2026-04-21 12:00 | -4.92539 | -67.83519 | 35964 ft | 474 kts | 317° |
| 2026-04-21 12:01 | -4.87837 | -67.88160 | 35967 ft | 473 kts | 317° |
| 2026-04-21 12:01 | -4.83138 | -67.92797 | 35963 ft | 473 kts | 317° |
| 2026-04-21 12:02 | -4.76130 | -67.99711 | 35963 ft | 472 kts | 317° |
| 2026-04-21 12:03 | -4.71441 | -68.04336 | 35966 ft | 472 kts | 317° |
| 2026-04-21 12:03 | -4.66751 | -68.08960 | 35965 ft | 471 kts | 317° |
| 2026-04-21 12:04 | -4.62074 | -68.13574 | 35967 ft | 471 kts | 317° |
| 2026-04-21 12:04 | -4.57423 | -68.18159 | 35968 ft | 471 kts | 317° |
| 2026-04-21 12:05 | -4.52749 | -68.22764 | 35963 ft | 471 kts | 317° |
| 2026-04-21 12:05 | -4.48065 | -68.27380 | 35968 ft | 471 kts | 317° |
| 2026-04-21 12:06 | -4.43379 | -68.31995 | 35968 ft | 472 kts | 317° |
| 2026-04-21 12:06 | -4.38722 | -68.36581 | 35966 ft | 472 kts | 317° |
| 2026-04-21 12:07 | -4.34022 | -68.41210 | 35968 ft | 473 kts | 317° |
| 2026-04-21 12:07 | -4.29320 | -68.45840 | 35970 ft | 474 kts | 317° |
| 2026-04-21 12:08 | -4.24610 | -68.50475 | 35970 ft | 474 kts | 317° |
| 2026-04-21 12:08 | -4.19925 | -68.55087 | 35969 ft | 475 kts | 317° |
| 2026-04-21 12:09 | -4.15203 | -68.59733 | 35971 ft | 475 kts | 317° |
| 2026-04-21 12:09 | -4.10477 | -68.64382 | 35970 ft | 476 kts | 317° |
| 2026-04-21 12:10 | -4.05750 | -68.69032 | 35970 ft | 476 kts | 317° |
| 2026-04-21 12:10 | -4.01049 | -68.73655 | 35972 ft | 475 kts | 317° |
| 2026-04-21 12:11 | -3.96337 | -68.78309 | 35973 ft | 475 kts | 317° |
| 2026-04-21 12:11 | -3.91637 | -68.82967 | 35968 ft | 474 kts | 317° |
| 2026-04-21 12:12 | -3.86937 | -68.87621 | 35971 ft | 474 kts | 317° |
| 2026-04-21 12:12 | -3.82276 | -68.92232 | 35971 ft | 473 kts | 317° |
| 2026-04-21 12:13 | -3.77590 | -68.96864 | 35966 ft | 473 kts | 317° |
| 2026-04-21 12:13 | -3.72899 | -69.01501 | 35973 ft | 473 kts | 317° |
| 2026-04-21 12:14 | -3.68220 | -69.06126 | 35971 ft | 472 kts | 317° |
| 2026-04-21 12:14 | -3.63546 | -69.10744 | 35973 ft | 472 kts | 317° |
| 2026-04-21 12:15 | -3.58870 | -69.15365 | 35975 ft | 472 kts | 317° |
| 2026-04-21 12:15 | -3.54195 | -69.19984 | 35972 ft | 472 kts | 317° |
| 2026-04-21 12:16 | -3.49543 | -69.24580 | 35975 ft | 472 kts | 317° |
| 2026-04-21 12:16 | -3.44868 | -69.29198 | 35971 ft | 472 kts | 317° |
| 2026-04-21 12:17 | -3.40191 | -69.33817 | 35972 ft | 472 kts | 317° |
| 2026-04-21 12:17 | -3.35519 | -69.38429 | 35973 ft | 472 kts | 317° |
| 2026-04-21 12:18 | -3.30831 | -69.43057 | 35973 ft | 472 kts | 317° |
| 2026-04-21 12:18 | -3.26152 | -69.47675 | 35972 ft | 473 kts | 317° |
| 2026-04-21 12:19 | -3.21468 | -69.52297 | 35973 ft | 472 kts | 317° |
| 2026-04-21 12:19 | -3.16816 | -69.56888 | 35976 ft | 472 kts | 317° |
| 2026-04-21 12:20 | -3.12124 | -69.61517 | 35972 ft | 472 kts | 317° |
| 2026-04-21 12:20 | -3.07435 | -69.66141 | 35973 ft | 472 kts | 317° |
| 2026-04-21 12:21 | -3.02757 | -69.70755 | 35971 ft | 472 kts | 317° |
| 2026-04-21 12:21 | -2.98082 | -69.75387 | 35971 ft | 472 kts | 316° |
| 2026-04-21 12:22 | -2.93450 | -69.79999 | 35970 ft | 472 kts | 316° |
| 2026-04-21 12:22 | -2.88780 | -69.84643 | 35975 ft | 472 kts | 316° |
| 2026-04-21 12:23 | -2.84110 | -69.89284 | 35972 ft | 473 kts | 316° |
| 2026-04-21 12:23 | -2.79464 | -69.93897 | 35977 ft | 473 kts | 317° |
| 2026-04-21 12:24 | -2.74788 | -69.98539 | 35975 ft | 473 kts | 316° |
| 2026-04-21 12:24 | -2.69797 | -70.02759 | 35974 ft | 470 kts | 330° |
| 2026-04-21 12:25 | -2.63968 | -70.05668 | 35976 ft | 467 kts | 336° |
| 2026-04-21 12:25 | -2.58055 | -70.08392 | 35978 ft | 468 kts | 337° |
| 2026-04-21 12:26 | -2.52141 | -70.11146 | 35975 ft | 468 kts | 336° |
| 2026-04-21 12:26 | -2.46275 | -70.13914 | 35973 ft | 468 kts | 336° |
| 2026-04-21 12:27 | -2.40371 | -70.16712 | 35975 ft | 469 kts | 336° |
| 2026-04-21 12:27 | -2.34457 | -70.19514 | 35978 ft | 469 kts | 336° |
| 2026-04-21 12:28 | -2.28590 | -70.22294 | 35974 ft | 469 kts | 336° |
| 2026-04-21 12:28 | -2.22682 | -70.25092 | 35975 ft | 469 kts | 336° |
| 2026-04-21 12:29 | -2.16772 | -70.27890 | 35972 ft | 469 kts | 336° |
| 2026-04-21 12:29 | -2.10902 | -70.30670 | 35979 ft | 468 kts | 336° |
| 2026-04-21 12:30 | -2.05009 | -70.33458 | 35973 ft | 468 kts | 336° |
| 2026-04-21 12:30 | -1.99120 | -70.36245 | 35980 ft | 467 kts | 336° |
| 2026-04-21 12:31 | -1.93240 | -70.39028 | 35980 ft | 467 kts | 336° |
| 2026-04-21 12:31 | -1.87368 | -70.41810 | 35981 ft | 467 kts | 336° |
| 2026-04-21 12:32 | -1.81516 | -70.44580 | 35981 ft | 466 kts | 336° |
| 2026-04-21 12:32 | -1.75657 | -70.47352 | 35980 ft | 466 kts | 336° |
| 2026-04-21 12:33 | -1.69794 | -70.50126 | 35980 ft | 465 kts | 336° |
| 2026-04-21 12:33 | -1.63930 | -70.52899 | 35981 ft | 465 kts | 336° |
| 2026-04-21 12:34 | -1.58116 | -70.55651 | 35982 ft | 465 kts | 336° |
| 2026-04-21 12:34 | -1.52267 | -70.58418 | 35980 ft | 465 kts | 336° |
| 2026-04-21 12:35 | -1.46417 | -70.61186 | 35982 ft | 464 kts | 336° |
| 2026-04-21 12:35 | -1.40568 | -70.63951 | 35982 ft | 464 kts | 336° |
| 2026-04-21 12:36 | -1.34753 | -70.66702 | 35985 ft | 464 kts | 336° |
| 2026-04-21 12:36 | -1.28908 | -70.69467 | 35986 ft | 465 kts | 336° |
| 2026-04-21 12:37 | -1.23063 | -70.72232 | 35988 ft | 465 kts | 336° |
| 2026-04-21 12:37 | -1.17210 | -70.75000 | 35983 ft | 465 kts | 336° |
| 2026-04-21 12:38 | -1.11363 | -70.77765 | 35988 ft | 464 kts | 336° |
| 2026-04-21 12:38 | -1.05520 | -70.80527 | 35983 ft | 465 kts | 336° |
| 2026-04-21 12:39 | -0.99707 | -70.83275 | 35986 ft | 464 kts | 336° |
| 2026-04-21 12:39 | -0.93860 | -70.86040 | 35988 ft | 464 kts | 336° |
| 2026-04-21 12:40 | -0.88962 | -70.88357 | 35986 ft | 465 kts | 336° |